Terminal Aerodrome Forecast
Issued by NWS

Home | Current Version | Previous Version | Text Only | Print | Product List | Glossary On
Versions: 1 2 3 4 5 6 7 8 9 10 11 12 13 14 15 16 17 18 19 20
000
FTAK31 PAJN 191129
TAFAYA
TAF
PAYA 191129Z 1912/2012 00000KT P6SM BCFG FEW002
      TEMPO 1912/1916 2SM BR BKN002
     FM191800 06006KT P6SM SKC
      AMD LTD TO CLD VIS AND WIND 2001/2009=

USA.gov is the U.S. government's official web portal to all federal, state and local government web resources and services.